createdAt,value
2022-08-05T00:01:35.620Z,22.40
2022-08-05T00:04:19.144Z,23.30
2022-08-05T00:11:55.790Z,23.30
2022-08-05T00:14:29.121Z,23.40
2022-08-05T00:58:17.117Z,23.10
2022-08-05T01:00:47.935Z,23.10
2022-08-05T01:03:22.530Z,23.10
2022-08-05T01:08:41.465Z,23.00
2022-08-05T01:11:21.850Z,23.10
2022-08-05T01:13:58.752Z,23.10
2022-08-05T01:16:52.897Z,23.20
2022-08-05T01:19:36.831Z,23.20
2022-08-05T01:22:31.813Z,23.20
2022-08-05T01:25:13.654Z,23.30
2022-08-05T01:28:13.698Z,23.30
2022-08-05T01:30:53.554Z,23.30
2022-08-05T01:33:26.191Z,23.20
2022-08-05T01:35:55.614Z,23.30
2022-08-05T01:38:29.231Z,23.30
2022-08-05T01:41:01.974Z,23.20
2022-08-05T01:43:30.787Z,23.20
2022-08-05T04:31:44.461Z,21.80
2022-08-05T04:34:19.650Z,22.00
2022-08-05T04:37:03.241Z,22.00
2022-08-05T04:39:32.071Z,22.00
2022-08-05T04:41:59.140Z,22.10
2022-08-05T04:44:30.282Z,22.00
2022-08-05T04:46:59.666Z,22.00
2022-08-05T04:49:38.883Z,22.00
2022-08-05T04:52:16.339Z,21.90
2022-08-05T04:54:43.445Z,21.80
2022-08-05T04:57:10.712Z,21.70
2022-08-05T04:59:40.480Z,21.70
2022-08-05T05:02:37.020Z,21.70
2022-08-05T05:05:02.131Z,21.60
2022-08-05T05:07:32.409Z,21.60
2022-08-05T05:10:04.394Z,21.70
2022-08-05T05:12:31.899Z,21.80
2022-08-05T05:15:03.838Z,21.90
2022-08-05T05:17:56.158Z,21.90
2022-08-05T05:20:28.445Z,21.90
2022-08-05T05:23:08.129Z,21.90
2022-08-05T05:25:46.494Z,22.00
2022-08-05T05:28:15.008Z,22.10
2022-08-05T05:30:42.863Z,22.10
2022-08-05T05:33:23.298Z,22.20
2022-08-05T05:35:50.756Z,22.20
2022-08-05T05:38:22.457Z,22.20
2022-08-05T05:40:56.093Z,22.10
2022-08-05T05:43:57.523Z,22.10
2022-08-05T05:46:17.323Z,22.10
2022-08-05T05:48:48.121Z,22.20
2022-08-05T05:51:22.809Z,22.10
2022-08-05T05:53:57.186Z,22.10
2022-08-05T05:56:33.279Z,22.20
2022-08-05T05:59:05.387Z,22.10
2022-08-05T06:01:40.272Z,22.10
2022-08-05T06:04:14.303Z,22.10
2022-08-05T06:06:47.486Z,22.20
2022-08-05T06:09:26.530Z,22.20
2022-08-05T06:12:04.290Z,22.20
2022-08-05T06:14:32.106Z,22.20
2022-08-05T06:17:01.985Z,22.30
2022-08-05T06:19:34.009Z,22.30
2022-08-05T08:30:47.862Z,24.00
2022-08-05T08:33:17.697Z,24.10
2022-08-05T08:35:52.982Z,24.20
2022-08-05T08:38:35.094Z,24.30
2022-08-05T08:41:10.731Z,24.30
2022-08-05T08:45:18.730Z,24.40
2022-08-05T08:46:32.141Z,24.40
2022-08-05T08:50:07.776Z,24.50
2022-08-05T08:52:13.141Z,24.50
2022-08-05T08:54:53.704Z,24.60
2022-08-05T08:57:22.592Z,24.70
2022-08-05T08:59:50.995Z,24.80
2022-08-05T09:02:20.923Z,24.90
2022-08-05T09:10:27.099Z,25.30
2022-08-05T09:13:04.484Z,25.40
2022-08-05T10:04:10.328Z,25.50
2022-08-05T15:08:08.913Z,23.80
2022-08-05T15:10:43.494Z,24.00
2022-08-05T15:13:13.459Z,24.50
2022-08-05T15:15:55.468Z,25.10
2022-08-05T18:23:04.837Z,22.60
2022-08-05T18:25:38.985Z,22.60
2022-08-05T18:28:09.858Z,22.20
2022-08-05T18:30:40.176Z,21.90
2022-08-05T18:33:08.594Z,21.80
2022-08-05T18:36:00.067Z,21.70
2022-08-05T18:38:29.221Z,21.70
2022-08-05T18:41:55.935Z,21.50
2022-08-05T18:43:49.067Z,21.40
2022-08-05T18:46:20.267Z,21.30
2022-08-05T18:48:53.846Z,21.30
2022-08-05T18:52:05.768Z,21.20
2022-08-05T18:54:28.502Z,21.10
2022-08-05T18:57:02.312Z,20.70
2022-08-05T18:59:43.239Z,20.50
2022-08-05T19:02:28.672Z,20.40
2022-08-05T19:05:02.396Z,20.30
2022-08-05T19:07:50.086Z,20.40
2022-08-05T19:10:26.670Z,20.50
2022-08-05T19:12:59.490Z,20.40
2022-08-05T19:15:59.815Z,20.50
2022-08-05T19:18:21.949Z,20.60
2022-08-05T19:20:52.411Z,20.60
2022-08-05T19:24:06.839Z,20.70
2022-08-05T19:26:11.252Z,20.70
2022-08-05T19:28:44.053Z,20.70
2022-08-05T19:31:12.937Z,20.70
2022-08-05T19:33:48.537Z,20.70
2022-08-05T19:36:25.987Z,20.70
2022-08-05T19:39:00.942Z,20.50
2022-08-05T19:42:05.341Z,20.40
2022-08-05T19:44:19.642Z,20.20
2022-08-05T19:46:46.808Z,20.00
2022-08-05T19:49:17.273Z,19.90
2022-08-05T19:52:05.668Z,19.80
2022-08-05T19:54:34.202Z,19.60
2022-08-05T19:57:06.704Z,19.50
2022-08-05T19:59:56.169Z,19.40
2022-08-05T20:02:28.171Z,19.40
2022-08-05T20:04:58.610Z,19.60
2022-08-05T20:07:46.538Z,19.60
2022-08-05T20:10:17.171Z,19.40
2022-08-05T20:12:48.416Z,19.40
2022-08-05T20:15:52.423Z,19.40
2022-08-05T20:18:34.018Z,19.40
2022-08-05T20:20:57.642Z,19.30
2022-08-05T20:23:40.362Z,19.30
2022-08-05T20:26:17.139Z,19.30
2022-08-05T20:28:55.812Z,19.30
2022-08-05T20:31:36.818Z,19.30
2022-08-05T20:34:12.545Z,19.40
2022-08-05T20:36:43.543Z,19.60
2022-08-05T20:39:13.467Z,19.60
2022-08-05T20:41:45.404Z,19.70
2022-08-05T20:44:18.455Z,19.60
2022-08-05T20:46:57.358Z,19.80
2022-08-05T20:49:26.143Z,19.70
2022-08-05T20:51:54.180Z,19.70
2022-08-05T20:54:43.261Z,19.70
2022-08-05T20:57:42.061Z,19.70
2022-08-05T21:02:56.966Z,19.40
2022-08-05T21:05:24.893Z,19.30
2022-08-05T21:07:52.553Z,19.20
2022-08-05T21:10:20.524Z,19.20
2022-08-05T21:12:55.558Z,19.30
2022-08-05T21:15:34.052Z,19.40
2022-08-05T21:18:01.330Z,19.40
2022-08-05T21:20:32.872Z,19.40
2022-08-05T21:23:01.029Z,19.50
2022-08-05T21:25:33.934Z,19.50
2022-08-05T21:28:03.314Z,19.60
2022-08-05T21:30:31.720Z,19.70
2022-08-05T21:33:01.825Z,19.70
2022-08-05T21:35:55.435Z,19.70
2022-08-05T21:38:17.177Z,19.70
2022-08-05T21:40:45.086Z,19.80
2022-08-05T21:43:24.053Z,19.70
2022-08-05T21:45:57.584Z,19.80
2022-08-05T21:48:28.880Z,19.70
2022-08-05T21:50:57.368Z,19.60
2022-08-05T21:56:16.438Z,19.20
2022-08-05T21:58:57.191Z,19.10
2022-08-05T22:01:26.281Z,19.00
2022-08-05T22:03:53.991Z,18.80
2022-08-05T22:06:22.755Z,18.70
2022-08-05T22:09:02.221Z,18.60
2022-08-05T22:11:41.544Z,18.50
2022-08-05T22:14:31.337Z,18.40
2022-08-05T22:17:05.124Z,18.40
2022-08-05T22:20:02.013Z,18.30
2022-08-05T22:22:26.887Z,18.30
2022-08-05T22:25:21.115Z,18.20
2022-08-05T22:28:04.854Z,18.20
2022-08-05T22:30:55.859Z,18.20
2022-08-05T22:33:55.836Z,18.20
2022-08-05T22:36:16.334Z,18.30
2022-08-05T22:38:48.324Z,18.30
2022-08-05T22:41:25.967Z,18.40
2022-08-05T22:44:08.266Z,18.30
2022-08-05T22:46:39.964Z,18.30
2022-08-05T22:49:23.669Z,18.30
2022-08-05T22:52:05.351Z,18.10
2022-08-05T22:54:36.392Z,18.00
2022-08-05T22:57:05.536Z,18.00
2022-08-05T22:59:44.114Z,18.00
2022-08-05T23:02:17.899Z,18.00
2022-08-05T23:04:52.348Z,18.10
2022-08-05T23:07:21.887Z,18.20
2022-08-05T23:09:58.070Z,18.10
2022-08-05T23:12:32.843Z,18.20
2022-08-05T23:15:03.959Z,18.40
2022-08-05T23:17:37.975Z,18.50
2022-08-05T23:20:24.405Z,18.60
2022-08-05T23:22:55.940Z,18.70
2022-08-05T23:25:51.589Z,18.90
2022-08-05T23:28:12.044Z,19.10
2022-08-05T23:33:25.719Z,19.50
2022-08-05T23:36:09.937Z,19.50
2022-08-05T23:38:37.915Z,19.60
2022-08-05T23:41:05.142Z,19.60
2022-08-05T23:44:04.947Z,19.60
2022-08-05T23:46:21.956Z,19.70
2022-08-05T23:49:00.918Z,19.70
